Time;durP1;ratioP1;P1;durP2;ratioP2;P2;SDS_P1;SDS_P2;PMS_P1;PMS_P2;Temp;Humidity;BMP_temperature;BMP_pressure;BME280_temperature;BME280_humidity;BME280_pressure;Samples;Min_cycle;Max_cycle;Signal;HPM_P1;HPM_P2
2022/12/09 00:00:53;;;;;;;36.47;19.83;;;;;;;9.16;92.47;99541.59;5033342;28;20602;-55
2022/12/09 00:03:20;;;;;;;32.57;19.63;;;;;;;9.30;92.41;99550.44;5033374;28;20189;-55
2022/12/09 00:05:49;;;;;;;37.53;20.13;;;;;;;9.29;92.37;99549.59;5033069;28;20212;-54
2022/12/09 00:08:16;;;;;;;32.13;18.83;;;;;;;9.31;92.81;99550.47;5033109;28;20181;-55
2022/12/09 00:10:43;;;;;;;29.77;17.80;;;;;;;9.37;92.10;99545.47;5033341;28;20185;-54
2022/12/09 00:13:10;;;;;;;32.97;19.07;;;;;;;9.34;92.42;99553.09;5033183;28;20686;-55
2022/12/09 00:15:41;;;;;;;35.40;19.07;;;;;;;9.38;92.42;99554.06;5030494;28;20189;-54
2022/12/09 00:18:08;;;;;;;33.73;19.07;;;;;;;9.38;92.46;99541.22;5045593;28;20203;-55
2022/12/09 00:20:35;;;;;;;35.40;19.37;;;;;;;9.41;92.67;99542.16;5053869;28;20188;-55
2022/12/09 00:23:04;;;;;;;34.10;18.87;;;;;;;9.43;92.41;99544.75;5054323;28;20578;-55
2022/12/09 00:25:31;;;;;;;35.93;19.40;;;;;;;9.24;92.56;99525.53;5054621;28;20220;-55
2022/12/09 00:27:58;;;;;;;33.37;19.33;;;;;;;9.39;92.53;99542.97;5044232;28;20189;-55
2022/12/09 00:30:25;;;;;;;35.73;18.90;;;;;;;9.38;92.73;99546.34;5036944;28;20196;-55
2022/12/09 00:32:52;;;;;;;34.83;18.27;;;;;;;9.21;92.72;99532.28;5033993;28;20204;-56
2022/12/09 00:35:18;;;;;;;33.20;18.00;;;;;;;9.38;92.74;99561.75;5033372;28;20250;-55
2022/12/09 00:37:45;;;;;;;31.37;17.47;;;;;;;9.41;92.81;99566.94;5033823;28;20242;-56
2022/12/09 00:40:14;;;;;;;28.40;17.80;;;;;;;9.41;92.16;99564.38;5033341;28;20189;-55
2022/12/09 00:42:41;;;;;;;28.13;16.73;;;;;;;9.37;92.17;99565.13;5033437;28;20200;-55
2022/12/09 00:45:08;;;;;;;32.00;17.90;;;;;;;9.33;92.29;99568.47;5033138;28;20575;-55
2022/12/09 00:47:35;;;;;;;37.47;18.47;;;;;;;9.24;92.85;99550.31;5033247;28;20193;-55
2022/12/09 00:50:02;;;;;;;32.37;18.50;;;;;;;9.39;92.64;99558.34;5027619;28;20185;-55
2022/12/09 00:52:29;;;;;;;32.60;19.27;;;;;;;9.41;92.63;99562.69;5065736;28;20219;-55
2022/12/09 00:54:55;;;;;;;33.13;18.33;;;;;;;9.41;92.56;99557.56;5055191;28;20221;-55
2022/12/09 00:57:24;;;;;;;35.97;18.33;;;;;;;9.43;92.30;99553.31;5053572;28;20207;-55
2022/12/09 00:59:50;;;;;;;29.27;18.37;;;;;;;9.39;92.51;99543.81;5053461;28;20192;-55
2022/12/09 01:02:17;;;;;;;32.40;18.70;;;;;;;9.39;92.41;99545.53;5053622;28;20204;-55
2022/12/09 01:04:44;;;;;;;33.70;17.93;;;;;;;9.39;93.03;99543.81;5053576;28;20666;-55
2022/12/09 01:07:11;;;;;;;31.57;17.40;;;;;;;9.25;92.65;99508.47;5053572;28;20220;-55
2022/12/09 01:09:37;;;;;;;31.20;18.03;;;;;;;9.43;92.71;99545.63;5053409;28;20662;-55
2022/12/09 01:12:05;;;;;;;32.67;18.07;;;;;;;9.43;92.88;99537.06;5053513;28;20193;-55
2022/12/09 01:14:33;;;;;;;31.00;17.63;;;;;;;9.40;92.65;99548.13;5054011;28;20223;-55
2022/12/09 01:17:00;;;;;;;32.60;18.63;;;;;;;9.40;93.26;99548.13;5053350;28;20204;-56
2022/12/09 01:19:27;;;;;;;32.43;18.40;;;;;;;9.46;93.42;99555.94;5053457;28;20658;-56
2022/12/09 01:21:54;;;;;;;32.17;17.73;;;;;;;9.43;93.24;99558.44;5053836;28;20191;-55
2022/12/09 01:24:21;;;;;;;29.13;17.53;;;;;;;9.46;93.42;99553.38;5059689;28;20678;-55
2022/12/09 01:26:48;;;;;;;31.70;18.13;;;;;;;9.47;93.22;99547.44;5073033;28;20212;-54
2022/12/09 01:29:14;;;;;;;30.53;17.20;;;;;;;9.43;93.34;99543.06;5073131;28;20195;-54
2022/12/09 01:31:43;;;;;;;26.37;16.20;;;;;;;9.53;92.85;99556.97;5073150;28;20183;-54
2022/12/09 01:34:10;;;;;;;24.93;15.60;;;;;;;9.50;92.64;99537.22;5072200;28;20194;-54
2022/12/09 01:36:36;;;;;;;27.37;16.70;;;;;;;9.54;92.68;99542.41;5072942;28;20195;-54
2022/12/09 01:39:03;;;;;;;24.73;14.83;;;;;;;9.52;93.00;99544.94;5072874;28;20249;-54
2022/12/09 01:41:30;;;;;;;26.85;17.65;;;;;;;9.58;92.92;99550.22;5071932;28;20437;-54
2022/12/09 01:44:09;;;;;;;24.50;15.83;;;;;;;9.64;92.58;99540.06;5072861;28;20191;-55
2022/12/09 01:46:35;;;;;;;22.43;14.63;;;;;;;9.65;92.25;99533.22;5073000;28;20217;-55
2022/12/09 01:49:06;;;;;;;21.47;14.93;;;;;;;9.66;92.16;99537.53;5073341;28;20627;-55
2022/12/09 01:51:33;;;;;;;22.77;14.97;;;;;;;9.66;92.67;99537.53;5073019;28;20226;-55
2022/12/09 01:54:01;;;;;;;25.10;14.77;;;;;;;9.53;92.17;99515.94;5072711;28;20645;-55
2022/12/09 01:56:30;;;;;;;24.33;14.87;;;;;;;9.72;92.40;99537.69;5072592;28;20199;-55
2022/12/09 01:58:59;;;;;;;23.87;14.23;;;;;;;9.72;92.15;99530.84;5073335;28;20194;-55
2022/12/09 02:01:26;;;;;;;21.53;13.50;;;;;;;9.72;92.08;99541.13;5072680;28;20187;-55
2022/12/09 02:03:53;;;;;;;22.27;14.40;;;;;;;9.70;92.17;99531.63;5072472;28;20191;-55
2022/12/09 02:06:21;;;;;;;24.60;15.07;;;;;;;9.74;92.15;99534.31;5072551;28;20215;-55
2022/12/09 02:08:50;;;;;;;22.43;14.50;;;;;;;9.73;92.08;99532.56;5072571;28;20192;-55
2022/12/09 02:11:26;;;;;;;20.90;13.87;;;;;;;9.56;92.46;99502.28;5072739;28;20191;-55
2022/12/09 02:14:03;;;;;;;21.57;14.60;;;;;;;9.71;92.06;99518.84;5067832;28;20215;-55
2022/12/09 02:16:42;;;;;;;26.33;14.30;;;;;;;9.71;92.24;99515.41;5052374;28;20199;-55
2022/12/09 02:19:19;;;;;;;21.57;13.67;;;;;;;9.66;92.40;99523.03;5052101;28;20180;-55
2022/12/09 02:21:53;;;;;;;21.77;14.20;;;;;;;9.67;92.54;99527.31;5052023;28;20196;-55
2022/12/09 02:24:27;;;;;;;20.70;14.07;;;;;;;9.70;92.07;99527.38;5052148;28;20195;-55
2022/12/09 02:27:01;;;;;;;19.47;13.17;;;;;;;9.78;92.11;99520.69;5052369;28;20219;-55
2022/12/09 02:29:53;;;;;;;21.50;12.80;;;;;;;9.78;91.93;99512.16;5052455;28;20184;-55
2022/12/09 02:32:39;;;;;;;19.17;12.23;;;;;;;9.77;92.55;99513.84;5050793;28;20253;-55
2022/12/09 02:35:11;;;;;;;19.40;12.27;;;;;;;9.78;92.44;99520.69;5052633;28;20191;-55
2022/12/09 02:37:42;;;;;;;22.83;11.97;;;;;;;9.81;92.41;99517.31;5052283;28;20215;-55
2022/12/09 02:40:14;;;;;;;18.70;12.60;;;;;;;9.79;92.39;99530.13;5052015;28;20681;-55
2022/12/09 02:42:44;;;;;;;18.07;12.67;;;;;;;9.82;92.02;99530.19;5052332;28;20250;-55
2022/12/09 02:45:13;;;;;;;18.50;12.97;;;;;;;9.79;92.45;99530.13;5055046;28;20616;-55
2022/12/09 02:47:46;;;;;;;19.40;12.77;;;;;;;9.80;92.59;99519.03;5056089;28;20693;-55
2022/12/09 02:50:19;;;;;;;20.03;12.87;;;;;;;9.78;92.59;99518.13;5056404;28;20196;-55
2022/12/09 02:52:47;;;;;;;19.13;12.50;;;;;;;9.81;92.68;99518.19;5056401;28;20228;-55
2022/12/09 02:55:16;;;;;;;18.27;12.47;;;;;;;9.75;92.50;99497.53;5055862;28;20646;-55
2022/12/09 02:57:43;;;;;;;18.93;12.27;;;;;;;9.78;92.99;99519.84;5056064;28;20206;-55
2022/12/09 03:00:13;;;;;;;21.83;13.23;;;;;;;9.77;93.58;99523.22;5056474;28;20200;-55
2022/12/09 03:02:44;;;;;;;20.57;12.20;;;;;;;9.73;93.86;99529.13;5055989;28;20558;-55
2022/12/09 03:05:21;;;;;;;22.13;12.70;;;;;;;9.73;94.04;99530.00;5055906;28;20195;-55
2022/12/09 03:07:55;;;;;;;24.03;13.17;;;;;;;9.67;94.32;99519.59;5056143;28;20204;-55
2022/12/09 03:10:27;;;;;;;18.97;13.27;;;;;;;9.63;94.45;99520.41;5055672;28;20250;-55
2022/12/09 03:12:59;;;;;;;25.53;13.40;;;;;;;9.72;93.81;99538.53;5055751;28;20195;-55
2022/12/09 03:15:30;;;;;;;21.33;12.87;;;;;;;9.75;93.52;99542.88;5055982;28;20605;-55
2022/12/09 03:18:01;;;;;;;17.50;11.83;;;;;;;9.75;93.87;99538.59;5055778;28;20188;-55
2022/12/09 03:20:34;;;;;;;19.17;13.20;;;;;;;9.70;93.64;99531.63;5056144;28;20254;-55
2022/12/09 03:23:04;;;;;;;23.10;13.57;;;;;;;9.71;94.00;99529.09;5056138;28;20188;-56
2022/12/09 03:25:39;;;;;;;21.77;12.80;;;;;;;9.75;94.22;99527.47;5055599;28;20658;-55
2022/12/09 03:28:09;;;;;;;20.77;12.90;;;;;;;9.78;94.08;99538.66;5055402;28;20222;-55
2022/12/09 03:30:39;;;;;;;16.33;11.93;;;;;;;9.77;93.92;99554.91;5055444;28;20211;-55
2022/12/09 03:33:07;;;;;;;20.97;12.10;;;;;;;9.36;93.45;99501.88;5055911;28;20188;-55
2022/12/09 03:35:38;;;;;;;20.27;12.73;;;;;;;9.74;93.88;99565.09;5055548;28;20195;-55
2022/12/09 03:38:09;;;;;;;20.07;13.10;;;;;;;9.73;94.03;99558.22;5055635;28;20196;-55
2022/12/09 03:40:38;;;;;;;20.60;13.07;;;;;;;9.78;94.08;99560.91;5055483;28;20192;-55
2022/12/09 03:43:11;;;;;;;18.37;12.93;;;;;;;9.78;93.86;99548.91;5055084;28;20196;-55
2022/12/09 03:45:38;;;;;;;17.93;11.30;;;;;;;9.74;93.43;99562.53;5055277;28;20199;-55
2022/12/09 03:48:05;;;;;;;20.20;12.07;;;;;;;9.73;93.22;99558.22;5055227;28;20216;-55
2022/12/09 03:50:44;;;;;;;22.03;12.73;;;;;;;9.68;93.94;99564.09;5054933;28;20192;-55
2022/12/09 03:53:15;;;;;;;20.13;12.67;;;;;;;9.65;94.57;99561.47;5055131;28;20788;-55
2022/12/09 03:55:49;;;;;;;21.47;13.37;;;;;;;9.68;94.50;99554.69;5054308;28;20677;-55
2022/12/09 03:58:17;;;;;;;23.07;13.80;;;;;;;9.69;94.03;99559.00;5055295;28;20196;-55
2022/12/09 04:00:44;;;;;;;23.20;13.43;;;;;;;9.70;94.15;99549.59;5054938;28;20188;-55
2022/12/09 04:03:13;;;;;;;25.90;14.30;;;;;;;9.69;94.12;99556.44;5054886;28;20195;-55
2022/12/09 04:05:42;;;;;;;21.70;13.00;;;;;;;9.59;94.04;99544.25;5054760;28;20647;-55
2022/12/09 04:08:09;;;;;;;23.00;13.50;;;;;;;9.71;93.91;99554.75;5054620;28;20223;-55
2022/12/09 04:10:36;;;;;;;23.17;13.47;;;;;;;9.71;93.73;99557.31;5054359;28;20198;-55
2022/12/09 04:13:03;;;;;;;19.40;11.17;;;;;;;9.69;93.28;99558.13;5054921;28;20193;-55
2022/12/09 04:15:30;;;;;;;24.83;12.23;;;;;;;9.70;93.34;99563.28;5054624;28;20193;-55
2022/12/09 04:17:56;;;;;;;22.77;13.43;;;;;;;9.67;93.65;99552.94;5054585;28;20192;-55
2022/12/09 04:20:23;;;;;;;21.83;14.17;;;;;;;9.64;93.56;99547.75;5054410;28;20666;-55
2022/12/09 04:22:51;;;;;;;19.30;12.20;;;;;;;9.63;93.60;99548.59;5054386;28;20185;-55
2022/12/09 04:25:18;;;;;;;19.37;12.87;;;;;;;9.63;93.78;99543.47;5054152;28;20666;-55
2022/12/09 04:27:45;;;;;;;19.50;12.43;;;;;;;9.62;94.08;99546.88;5054528;28;20586;-55
2022/12/09 04:30:12;;;;;;;20.30;12.93;;;;;;;9.62;94.14;99540.88;5054653;28;20199;-55
2022/12/09 04:32:39;;;;;;;20.27;12.67;;;;;;;9.62;94.14;99536.59;5054208;28;20690;-55
2022/12/09 04:35:06;;;;;;;23.27;14.33;;;;;;;9.55;94.36;99537.34;5054509;28;20196;-56
2022/12/09 04:37:33;;;;;;;25.43;14.30;;;;;;;9.57;94.93;99538.22;5053970;28;20544;-55
2022/12/09 04:40:01;;;;;;;21.53;13.50;;;;;;;9.57;94.59;99538.22;5054562;28;20193;-55
2022/12/09 04:42:28;;;;;;;19.50;12.50;;;;;;;9.54;94.67;99532.16;5054525;28;20567;-55
2022/12/09 04:44:55;;;;;;;28.50;13.13;;;;;;;9.58;94.63;99532.25;5063054;28;20195;-56
2022/12/09 04:47:22;;;;;;;25.10;13.87;;;;;;;9.55;94.84;99539.91;5073015;28;20219;-55
2022/12/09 04:49:49;;;;;;;25.17;13.87;;;;;;;9.57;94.95;99533.09;5073975;28;20585;-55
2022/12/09 04:52:17;;;;;;;24.63;14.10;;;;;;;9.56;95.17;99531.34;5072021;28;20224;-55
2022/12/09 04:54:43;;;;;;;25.10;14.43;;;;;;;9.55;94.86;99529.63;5060973;28;20647;-55
2022/12/09 04:57:12;;;;;;;27.50;15.07;;;;;;;9.60;94.98;99537.41;5073887;28;20206;-55
2022/12/09 04:59:38;;;;;;;24.55;15.15;;;;;;;9.60;94.81;99542.53;5073326;28;20434;-55
2022/12/09 05:02:05;;;;;;;24.00;15.07;;;;;;;9.56;94.86;99540.75;5073918;28;20191;-55
2022/12/09 05:04:32;;;;;;;21.40;14.40;;;;;;;9.61;94.89;99541.72;5073636;28;20196;-56
2022/12/09 05:06:59;;;;;;;21.13;13.63;;;;;;;9.65;94.62;99552.06;5073399;28;20283;-56
2022/12/09 05:09:26;;;;;;;28.77;15.93;;;;;;;9.66;94.42;99546.13;5057125;28;20192;-56
2022/12/09 05:11:52;;;;;;;22.73;14.53;;;;;;;9.66;94.11;99548.69;5073651;28;20192;-55
2022/12/09 05:14:21;;;;;;;24.30;14.83;;;;;;;9.70;94.27;99553.03;5073471;28;20199;-55
2022/12/09 05:16:47;;;;;;;22.33;14.63;;;;;;;9.76;93.90;99558.28;5045030;28;20196;-55
2022/12/09 05:19:14;;;;;;;25.57;15.10;;;;;;;9.69;94.01;99556.44;5033322;28;20185;-56
2022/12/09 05:21:42;;;;;;;21.77;14.23;;;;;;;9.68;94.00;99566.66;5067438;28;20261;-56
2022/12/09 05:24:09;;;;;;;25.83;14.20;;;;;;;9.62;93.65;99561.38;5070149;28;20195;-55
2022/12/09 05:26:36;;;;;;;22.50;14.63;;;;;;;9.61;93.55;99562.25;5073036;28;20646;-55
2022/12/09 05:29:04;;;;;;;24.10;15.07;;;;;;;9.59;93.63;99559.63;5072867;28;20532;-55
2022/12/09 05:31:32;;;;;;;27.43;15.57;;;;;;;9.39;94.07;99559.19;5072657;28;20187;-55
2022/12/09 05:33:59;;;;;;;25.10;14.93;;;;;;;9.26;95.01;99557.19;5072874;28;20244;-55
2022/12/09 05:36:27;;;;;;;24.13;15.33;;;;;;;9.25;95.68;99557.19;5072949;28;20328;-55
2022/12/09 05:38:54;;;;;;;29.23;16.20;;;;;;;9.26;95.82;99556.31;5067085;28;20188;-55
2022/12/09 05:41:22;;;;;;;26.03;16.47;;;;;;;9.24;95.44;99527.25;5054359;28;20620;-56
2022/12/09 05:43:49;;;;;;;24.83;16.57;;;;;;;9.10;96.00;99559.38;5053064;28;20200;-55
2022/12/09 05:46:16;;;;;;;30.27;17.53;;;;;;;9.19;96.69;99559.59;5052777;28;20192;-55
2022/12/09 05:48:44;;;;;;;27.00;17.57;;;;;;;9.22;96.51;99559.66;5063776;28;20226;-56
2022/12/09 05:51:14;;;;;;;27.60;16.63;;;;;;;9.32;96.44;99557.34;5032513;28;20254;-55
2022/12/09 05:53:41;;;;;;;30.30;19.37;;;;;;;9.37;95.72;99557.44;5032640;28;20227;-55
2022/12/09 05:56:08;;;;;;;31.53;20.00;;;;;;;9.36;95.69;99559.16;5032493;28;20193;-56
2022/12/09 05:58:35;;;;;;;33.90;19.93;;;;;;;9.41;95.60;99556.69;5032458;28;20189;-54
2022/12/09 06:01:05;;;;;;;40.55;25.58;;;;;;;9.38;95.48;99556.63;5032001;28;20443;-55
2022/12/09 06:03:32;;;;;;;34.47;22.13;;;;;;;9.50;95.19;99560.28;5032835;28;20206;-54
2022/12/09 06:06:05;;;;;;;32.93;22.20;;;;;;;9.43;95.27;99566.13;5033117;28;20254;-56
2022/12/09 06:08:32;;;;;;;34.10;21.70;;;;;;;9.46;94.76;99573.91;5053842;28;20226;-55
2022/12/09 06:10:58;;;;;;;32.50;20.27;;;;;;;9.34;95.04;99573.63;5072658;28;20245;-55
2022/12/09 06:13:25;;;;;;;30.33;19.73;;;;;;;9.22;96.14;99575.94;5072394;28;20194;-55
2022/12/09 06:15:52;;;;;;;34.80;21.70;;;;;;;9.27;96.35;99576.88;5071912;28;20192;-56
2022/12/09 06:18:19;;;;;;;35.80;21.43;;;;;;;9.20;96.55;99576.72;5069683;28;20203;-54
2022/12/09 06:20:46;;;;;;;34.83;21.50;;;;;;;9.23;96.87;99585.31;5071408;28;20184;-54
2022/12/09 06:23:14;;;;;;;32.43;21.77;;;;;;;9.22;97.47;99593.88;5072014;28;20191;-55
2022/12/09 06:25:44;;;;;;;32.67;20.90;;;;;;;9.26;97.03;99602.47;5071828;28;20198;-55
2022/12/09 06:28:11;;;;;;;34.47;18.50;;;;;;;9.30;96.39;99597.47;5071957;28;20203;-55
2022/12/09 06:30:38;;;;;;;31.67;18.43;;;;;;;9.31;96.13;99598.34;5072394;28;20187;-56
2022/12/09 06:33:05;;;;;;;33.10;19.17;;;;;;;9.40;95.79;99607.09;5072156;28;20191;-55
2022/12/09 06:35:32;;;;;;;28.50;17.83;;;;;;;9.44;95.46;99610.59;5072052;28;20190;-56
2022/12/09 06:37:59;;;;;;;28.57;19.20;;;;;;;9.13;95.36;99556.88;5071890;28;20278;-55
2022/12/09 06:40:27;;;;;;;26.83;18.03;;;;;;;9.43;95.09;99609.72;5057317;28;20200;-55
2022/12/09 06:42:54;;;;;;;34.40;19.00;;;;;;;9.49;95.15;99609.88;5051686;28;20260;-55
2022/12/09 06:45:21;;;;;;;29.60;17.20;;;;;;;9.50;94.88;99616.72;5061316;28;20282;-55
2022/12/09 06:47:48;;;;;;;28.80;17.27;;;;;;;9.55;94.74;99615.97;5056813;28;20230;-56
2022/12/09 06:50:15;;;;;;;32.90;18.57;;;;;;;9.55;94.75;99608.28;5067019;28;20570;-56
2022/12/09 06:52:42;;;;;;;28.63;18.17;;;;;;;9.57;94.84;99602.34;5071671;28;20219;-56
2022/12/09 06:55:09;;;;;;;26.90;17.77;;;;;;;9.58;94.11;99598.97;5071645;28;20613;-55
2022/12/09 06:57:38;;;;;;;31.27;18.83;;;;;;;9.66;94.17;99607.69;5066221;28;20200;-55
2022/12/09 07:00:06;;;;;;;27.07;17.63;;;;;;;9.63;93.91;99609.31;5051695;28;20200;-55
2022/12/09 07:02:33;;;;;;;31.20;18.10;;;;;;;9.66;93.80;99610.25;5052126;28;20188;-55
2022/12/09 07:05:00;;;;;;;30.53;17.33;;;;;;;9.69;93.60;99604.31;5051116;28;20345;-55
2022/12/09 07:07:32;;;;;;;24.63;16.13;;;;;;;9.69;93.66;99607.75;5051407;28;20697;-55
2022/12/09 07:10:02;;;;;;;26.93;17.17;;;;;;;9.72;93.40;99604.38;5051397;28;20207;-57
2022/12/09 07:12:28;;;;;;;26.67;16.03;;;;;;;9.75;93.61;99610.41;5049231;28;20605;-57
2022/12/09 07:14:57;;;;;;;29.27;16.40;;;;;;;9.75;93.65;99609.56;5049916;28;20189;-57
2022/12/09 07:17:24;;;;;;;19.97;14.20;;;;;;;9.74;93.84;99602.72;5048892;28;20196;-57
2022/12/09 07:19:50;;;;;;;28.05;16.48;;;;;;;9.82;92.91;99609.72;5049925;28;20443;-56
2022/12/09 07:22:17;;;;;;;28.07;15.60;;;;;;;9.88;92.36;99612.44;5047808;28;20202;-55
2022/12/09 07:24:45;;;;;;;23.13;14.13;;;;;;;9.90;92.18;99613.31;5050123;28;20199;-56
2022/12/09 07:27:14;;;;;;;21.17;13.97;;;;;;;9.94;92.07;99611.69;5050462;28;20192;-57
2022/12/09 07:29:41;;;;;;;27.60;14.73;;;;;;;9.99;91.64;99613.53;5050889;28;20185;-55
2022/12/09 07:32:10;;;;;;;23.83;15.57;;;;;;;9.98;91.56;99601.50;5054139;28;20586;-57
2022/12/09 07:34:37;;;;;;;24.60;14.83;;;;;;;10.03;91.43;99602.47;5054435;28;20242;-56
2022/12/09 07:37:03;;;;;;;28.10;15.97;;;;;;;10.03;91.48;99601.59;5053888;28;20195;-56
2022/12/09 07:39:30;;;;;;;24.20;14.60;;;;;;;10.02;91.15;99607.56;5058685;28;20195;-56
2022/12/09 07:41:57;;;;;;;29.67;14.40;;;;;;;9.98;91.29;99606.63;5035462;28;20335;-56
2022/12/09 07:44:26;;;;;;;22.13;14.07;;;;;;;10.00;91.15;99610.09;5034872;28;20200;-55
2022/12/09 07:46:53;;;;;;;25.33;13.93;;;;;;;10.04;90.94;99614.47;5035007;28;20216;-55
2022/12/09 07:49:22;;;;;;;21.37;13.67;;;;;;;10.10;90.98;99611.16;5035909;28;20286;-55
2022/12/09 07:51:49;;;;;;;26.00;14.70;;;;;;;10.13;90.47;99618.09;5054377;28;20227;-55
2022/12/09 07:54:17;;;;;;;24.03;14.63;;;;;;;10.04;90.37;99608.47;5054385;28;20192;-55
2022/12/09 07:56:44;;;;;;;26.77;14.73;;;;;;;9.86;90.74;99595.28;5053515;28;20231;-56
2022/12/09 07:59:13;;;;;;;29.10;15.00;;;;;;;9.94;91.08;99615.09;5052709;28;20617;-56
2022/12/09 08:01:40;;;;;;;25.30;15.13;;;;;;;9.98;91.85;99604.06;5052824;28;20258;-56
2022/12/09 08:04:08;;;;;;;23.43;14.83;;;;;;;10.04;91.21;99609.34;5054135;28;20211;-55
2022/12/09 08:06:37;;;;;;;28.30;15.10;;;;;;;9.98;91.37;99609.22;5054656;28;20192;-56
2022/12/09 08:09:05;;;;;;;24.03;14.73;;;;;;;10.04;91.64;99624.75;5054772;28;20224;-56
2022/12/09 08:11:33;;;;;;;24.70;14.77;;;;;;;10.08;91.44;99626.50;5055045;28;20238;-54
2022/12/09 08:14:02;;;;;;;22.27;14.67;;;;;;;10.11;90.95;99620.56;5054301;28;20563;-55
2022/12/09 08:16:29;;;;;;;27.53;15.93;;;;;;;10.09;91.25;99611.97;5052054;28;20196;-56
2022/12/09 08:18:55;;;;;;;25.50;15.27;;;;;;;10.16;91.05;99608.75;5048480;28;20193;-57
2022/12/09 08:21:24;;;;;;;23.87;15.60;;;;;;;10.19;90.76;99613.09;5053136;28;20654;-56
2022/12/09 08:23:53;;;;;;;24.95;16.27;;;;;;;10.24;90.49;99624.31;5053459;28;20454;-56
2022/12/09 08:26:21;;;;;;;27.13;16.33;;;;;;;10.26;89.98;99630.31;5055286;28;20188;-55
2022/12/09 08:28:49;;;;;;;29.30;16.37;;;;;;;10.22;90.05;99616.56;5053816;28;20224;-55
2022/12/09 08:31:18;;;;;;;26.90;15.57;;;;;;;10.29;89.94;99618.41;5053730;28;20184;-56
2022/12/09 08:33:45;;;;;;;26.23;15.27;;;;;;;10.33;89.22;99603.94;5052872;28;20191;-56
2022/12/09 08:36:14;;;;;;;28.47;15.57;;;;;;;10.31;89.23;99603.91;5047234;28;20192;-56
2022/12/09 08:38:42;;;;;;;29.43;17.57;;;;;;;10.14;89.76;99600.13;5053277;28;20192;-56
2022/12/09 08:41:13;;;;;;;29.83;19.00;;;;;;;10.05;89.87;99585.38;5053185;28;20189;-56
2022/12/09 08:43:41;;;;;;;27.33;18.63;;;;;;;10.11;90.40;99602.59;5059163;28;20195;-56
2022/12/09 08:46:08;;;;;;;27.93;18.00;;;;;;;10.12;90.80;99604.34;5052263;28;20651;-57
2022/12/09 08:48:36;;;;;;;33.60;18.83;;;;;;;10.16;90.64;99607.88;5050884;28;20282;-56
2022/12/09 08:51:04;;;;;;;35.23;19.13;;;;;;;10.08;90.70;99600.84;5052485;28;20220;-55
2022/12/09 08:53:31;;;;;;;27.13;17.53;;;;;;;9.93;90.86;99591.97;5052707;28;20693;-55
2022/12/09 08:55:58;;;;;;;33.83;18.93;;;;;;;9.97;91.24;99611.75;5050626;28;20270;-55
2022/12/09 08:58:26;;;;;;;37.10;22.30;;;;;;;9.94;91.77;99602.25;5053264;28;20575;-55
2022/12/09 09:00:53;;;;;;;28.53;19.00;;;;;;;9.82;92.70;99607.16;5052871;28;20540;-55
2022/12/09 09:03:22;;;;;;;33.73;19.37;;;;;;;9.91;92.48;99599.66;5050689;28;20196;-55
2022/12/09 09:05:48;;;;;;;41.20;24.80;;;;;;;10.06;92.14;99592.25;5051507;28;20337;-55
2022/12/09 09:08:15;;;;;;;35.63;20.73;;;;;;;10.05;91.26;99575.09;5051740;28;20212;-55
2022/12/09 09:10:42;;;;;;;26.03;18.40;;;;;;;10.12;90.48;99593.22;5053319;28;20196;-54
2022/12/09 09:13:09;;;;;;;32.10;20.03;;;;;;;10.19;90.81;99587.41;5053401;28;20193;-55
2022/12/09 09:15:39;;;;;;;32.80;20.83;;;;;;;10.27;91.07;99575.56;5051159;28;20621;-55
2022/12/09 09:18:05;;;;;;;31.07;18.87;;;;;;;10.35;90.37;99568.88;5051869;28;20203;-55
2022/12/09 09:20:32;;;;;;;39.23;19.10;;;;;;;10.29;89.57;99569.63;5052157;28;20556;-55
2022/12/09 09:22:59;;;;;;;34.28;21.50;;;;;;;10.25;90.17;99562.69;5051529;28;20505;-55
2022/12/09 09:25:26;;;;;;;31.67;19.53;;;;;;;10.38;89.56;99546.66;5052455;28;20650;-55
2022/12/09 09:27:52;;;;;;;32.30;20.20;;;;;;;10.31;89.40;99556.81;5051969;28;20184;-54
2022/12/09 09:30:19;;;;;;;30.53;19.27;;;;;;;10.43;89.39;99549.31;5052501;28;20188;-54
2022/12/09 09:32:47;;;;;;;32.83;20.37;;;;;;;10.52;89.52;99545.19;5052933;28;20575;-55
2022/12/09 09:35:14;;;;;;;35.30;20.57;;;;;;;10.27;88.76;99488.28;5052931;28;20249;-55
2022/12/09 09:37:41;;;;;;;33.23;20.63;;;;;;;10.49;89.06;99523.75;5052734;28;20188;-54
2022/12/09 09:40:10;;;;;;;32.23;22.70;;;;;;;10.57;87.92;99524.75;5052633;28;20674;-54
2022/12/09 09:42:45;;;;;;;28.57;19.20;;;;;;;10.66;88.34;99536.03;5052671;28;20193;-54
2022/12/09 09:45:16;;;;;;;33.37;21.03;;;;;;;10.65;88.03;99533.44;5052553;28;20184;-55
2022/12/09 09:47:49;;;;;;;36.90;20.57;;;;;;;10.72;88.66;99531.81;5052503;28;20192;-54
2022/12/09 09:50:27;;;;;;;32.53;19.97;;;;;;;10.90;87.49;99535.56;5052786;28;20256;-55
2022/12/09 09:52:55;;;;;;;32.60;20.30;;;;;;;10.94;87.13;99539.91;5052724;28;20678;-54
2022/12/09 09:55:32;;;;;;;31.93;19.70;;;;;;;10.82;87.04;99531.16;5051383;28;20193;-55
2022/12/09 09:58:06;;;;;;;44.30;22.77;;;;;;;10.91;86.87;99534.72;5051982;28;20191;-54
2022/12/09 10:00:38;;;;;;;37.97;20.87;;;;;;;10.96;86.82;99516.81;5052471;28;20188;-54
2022/12/09 10:03:14;;;;;;;34.27;20.80;;;;;;;11.04;86.73;99520.34;5052302;28;20678;-54
2022/12/09 10:05:49;;;;;;;33.97;20.97;;;;;;;11.07;86.23;99518.66;5052288;28;20203;-54
2022/12/09 10:08:30;;;;;;;42.57;22.53;;;;;;;11.01;85.75;99498.03;5052967;28;20211;-55
2022/12/09 10:11:07;;;;;;;37.60;23.03;;;;;;;11.09;86.14;99501.56;5052141;28;20184;-54
2022/12/09 10:13:45;;;;;;;39.13;24.30;;;;;;;11.15;85.90;99500.78;5051412;28;20443;-55
2022/12/09 10:16:16;;;;;;;38.33;21.83;;;;;;;11.12;85.79;99495.59;5051872;28;20189;-54
2022/12/09 10:18:54;;;;;;;31.27;20.80;;;;;;;11.08;85.52;99504.97;5052257;28;20188;-54
2022/12/09 10:21:21;;;;;;;33.37;22.10;;;;;;;10.98;85.31;99473.97;5052103;28;20192;-54
2022/12/09 10:23:49;;;;;;;37.87;22.43;;;;;;;11.15;85.13;99491.34;5051702;28;20185;-55
2022/12/09 10:26:22;;;;;;;34.47;21.10;;;;;;;11.09;85.23;99485.28;5051985;28;20215;-55
2022/12/09 10:28:55;;;;;;;32.33;22.37;;;;;;;10.96;85.43;99468.81;5051561;28;20216;-55
2022/12/09 10:31:22;;;;;;;37.83;21.93;;;;;;;10.99;85.71;99458.56;5052440;28;20242;-55
2022/12/09 10:33:50;;;;;;;40.43;24.03;;;;;;;11.13;86.01;99449.34;5052019;28;20263;-54
2022/12/09 10:36:23;;;;;;;54.53;30.97;;;;;;;11.27;85.86;99454.66;5051779;28;20184;-54
2022/12/09 10:38:50;;;;;;;57.43;33.23;;;;;;;11.35;84.93;99455.59;5051887;28;20196;-54
2022/12/09 10:44:19;;;;;;;54.83;32.47;;;;;;;11.35;84.27;99439.31;5052247;28;20204;-54
2022/12/09 10:46:46;;;;;;;56.13;34.27;;;;;;;11.29;84.28;99437.53;5051844;28;20192;-55
2022/12/09 10:49:20;;;;;;;56.87;33.73;;;;;;;10.98;84.73;99431.16;5051863;28;20223;-54
2022/12/09 10:51:49;;;;;;;54.90;33.20;;;;;;;10.93;85.47;99412.19;5051365;28;20216;-54
2022/12/09 10:54:30;;;;;;;62.07;36.57;;;;;;;10.76;86.33;99423.97;5052002;28;20579;-54
2022/12/09 10:57:03;;;;;;;61.27;35.20;;;;;;;10.74;87.20;99423.06;5051514;28;20185;-54
2022/12/09 10:59:31;;;;;;;72.10;40.00;;;;;;;10.86;87.58;99424.97;5051664;28;20203;-54
2022/12/09 11:01:59;;;;;;;78.60;40.47;;;;;;;10.95;87.65;99399.38;5051229;28;20189;-54
2022/12/09 11:04:30;;;;;;;66.63;36.53;;;;;;;10.88;87.17;99403.56;5051098;28;20298;-54
2022/12/09 11:06:59;;;;;;;60.33;35.83;;;;;;;10.93;87.44;99401.09;5054894;28;20215;-54
2022/12/09 11:09:28;;;;;;;56.17;35.33;;;;;;;10.90;87.57;99386.50;5055186;28;20311;-54
2022/12/09 11:11:55;;;;;;;57.37;34.30;;;;;;;10.99;87.37;99411.41;5055277;28;20192;-55
2022/12/09 11:14:24;;;;;;;55.13;36.17;;;;;;;10.80;86.91;99371.75;5055259;28;20242;-54
2022/12/09 11:16:53;;;;;;;51.97;34.07;;;;;;;11.07;86.94;99399.56;5055020;28;20614;-55
2022/12/09 11:19:31;;;;;;;58.17;34.90;;;;;;;11.19;86.27;99409.97;5055610;28;20196;-55
2022/12/09 11:22:21;;;;;;;56.07;33.83;;;;;;;11.25;86.07;99413.50;5055381;28;20195;-55
2022/12/09 11:24:47;;;;;;;47.70;31.27;;;;;;;11.18;86.03;99409.09;5055526;28;20185;-54
2022/12/09 11:27:30;;;;;;;53.33;31.17;;;;;;;11.09;86.68;99397.88;5055170;28;20188;-55
2022/12/09 11:30:11;;;;;;;50.73;29.23;;;;;;;11.17;86.24;99406.53;5055635;28;20321;-55
2022/12/09 11:32:55;;;;;;;53.10;32.40;;;;;;;11.21;86.21;99388.56;5055380;28;20564;-54